Time;durP1;ratioP1;P1;durP2;ratioP2;P2;SDS_P1;SDS_P2;PMS_P1;PMS_P2;Temp;Humidity;BMP_temperature;BMP_pressure;BME280_temperature;BME280_humidity;BME280_pressure;Samples;Min_cycle;Max_cycle;Signal;HPM_P1;HPM_P2
2022/11/02 00:01:43;;;;;;;7.53;1.20;;;11.90;99.90;;;;;;5041331;28;20043;-46
2022/11/02 00:04:08;;;;;;;8.52;1.15;;;11.90;99.90;;;;;;5041273;28;20098;-46
2022/11/02 00:06:34;;;;;;;6.85;0.75;;;11.80;99.90;;;;;;5041447;28;20049;-46
2022/11/02 00:09:00;;;;;;;6.03;0.50;;;11.90;99.90;;;;;;5040967;28;20040;-47
2022/11/02 00:11:26;;;;;;;8.73;0.88;;;12.10;99.90;;;;;;5040873;28;20049;-53
2022/11/02 00:13:52;;;;;;;5.78;0.65;;;11.80;99.90;;;;;;5041061;28;20029;-50
2022/11/02 00:16:21;;;;;;;6.47;0.80;;;11.80;99.90;;;;;;5041809;28;20116;-47
2022/11/02 00:18:50;;;;;;;7.50;0.93;;;12.10;99.90;;;;;;5045063;28;20107;-47
2022/11/02 00:21:17;;;;;;;4.25;0.50;;;11.70;99.90;;;;;;5047485;28;20041;-46
2022/11/02 00:23:44;;;;;;;6.80;0.43;;;12.20;99.90;;;;;;5047548;28;20045;-46
2022/11/02 00:26:11;;;;;;;6.72;0.60;;;12.10;99.90;;;;;;5047651;28;20051;-47
2022/11/02 00:28:36;;;;;;;4.95;0.63;;;12.50;99.90;;;;;;5029848;28;20053;-46
2022/11/02 00:31:02;;;;;;;6.43;0.73;;;11.50;99.90;;;;;;5033581;28;20045;-46
2022/11/02 00:33:28;;;;;;;4.95;0.70;;;11.50;99.90;;;;;;5029771;28;20056;-47
2022/11/02 00:35:55;;;;;;;5.53;0.60;;;11.60;99.90;;;;;;5047445;28;20688;-47
2022/11/02 00:38:20;;;;;;;6.00;0.70;;;11.40;99.90;;;;;;5047559;28;20044;-46
2022/11/02 00:40:46;;;;;;;5.22;1.02;;;11.50;99.90;;;;;;5046181;28;20398;-46
2022/11/02 00:43:12;;;;;;;5.20;1.15;;;11.40;99.90;;;;;;5047828;28;20049;-47
2022/11/02 00:45:37;;;;;;;8.32;0.80;;;11.60;99.90;;;;;;5047556;28;20033;-46
2022/11/02 00:48:03;;;;;;;5.20;1.08;;;11.40;99.90;;;;;;5047433;28;20509;-46
2022/11/02 00:50:29;;;;;;;4.47;0.47;;;11.50;99.90;;;;;;5047605;28;20049;-46
2022/11/02 00:52:55;;;;;;;6.65;0.75;;;12.20;99.90;;;;;;5047058;28;20064;-46
2022/11/02 00:55:21;;;;;;;6.00;0.40;;;11.30;99.90;;;;;;5047257;28;20045;-46
2022/11/02 00:57:47;;;;;;;7.60;0.50;;;11.60;99.90;;;;;;5047283;28;20052;-46
2022/11/02 01:00:13;;;;;;;7.85;1.27;;;11.50;99.90;;;;;;5047295;28;20053;-46
2022/11/02 01:02:40;;;;;;;10.45;0.90;;;11.60;99.90;;;;;;5047270;28;20056;-47
2022/11/02 01:05:07;;;;;;;10.50;1.30;;;11.50;99.90;;;;;;5047197;28;20048;-47
2022/11/02 01:07:33;;;;;;;7.45;0.70;;;11.40;99.90;;;;;;5047023;28;20055;-47
2022/11/02 01:09:59;;;;;;;12.07;0.80;;;11.40;99.90;;;;;;5046911;28;20044;-46
2022/11/02 01:12:24;;;;;;;11.32;1.88;;;11.20;99.90;;;;;;5046872;28;20068;-47
2022/11/02 01:14:50;;;;;;;7.90;0.70;;;11.20;99.90;;;;;;5046303;28;20096;-48
2022/11/02 01:17:16;;;;;;;6.03;0.82;;;11.20;99.90;;;;;;5046227;28;20041;-46
2022/11/02 01:19:42;;;;;;;12.35;0.98;;;11.50;99.90;;;;;;5046462;28;20044;-47
2022/11/02 01:22:08;;;;;;;9.43;1.40;;;11.80;99.90;;;;;;5046382;28;20045;-46
2022/11/02 01:24:34;;;;;;;6.63;0.65;;;11.10;99.90;;;;;;5050268;28;20044;-46
2022/11/02 01:26:59;;;;;;;11.10;1.13;;;11.10;99.90;;;;;;5050577;28;20057;-46
2022/11/02 01:29:25;;;;;;;10.35;1.27;;;11.00;99.90;;;;;;5050330;28;20045;-46
2022/11/02 01:31:52;;;;;;;10.27;1.98;;;11.00;99.90;;;;;;5049756;28;20048;-47
2022/11/02 01:34:19;;;;;;;11.10;1.10;;;11.60;99.90;;;;;;5050181;28;20071;-46
2022/11/02 01:36:46;;;;;;;6.88;0.95;;;10.90;99.90;;;;;;5050092;28;20041;-47
2022/11/02 01:39:13;;;;;;;8.77;1.05;;;11.30;99.90;;;;;;5050263;28;20080;-46
2022/11/02 01:41:39;;;;;;;13.85;1.48;;;10.90;99.90;;;;;;5050476;28;20056;-46
2022/11/02 01:44:31;;;;;;;9.20;0.82;;;10.70;99.90;;;;;;5050355;28;20044;-46
2022/11/02 01:47:20;;;;;;;7.63;0.70;;;10.90;99.90;;;;;;5049908;28;20048;-48
2022/11/02 01:49:50;;;;;;;9.18;0.98;;;10.80;99.90;;;;;;5049545;28;20587;-46
2022/11/02 01:52:20;;;;;;;7.35;1.00;;;10.50;99.90;;;;;;5049425;28;20061;-47
2022/11/02 01:54:54;;;;;;;16.05;1.50;;;10.60;99.90;;;;;;5050286;28;20037;-48
2022/11/02 01:57:21;;;;;;;12.05;1.60;;;11.00;99.90;;;;;;5049849;28;20036;-47
2022/11/02 02:00:01;;;;;;;11.95;1.58;;;10.60;99.90;;;;;;5049807;28;20049;-46
2022/11/02 02:02:28;;;;;;;9.82;1.63;;;10.60;99.90;;;;;;5048121;28;20049;-46
2022/11/02 02:05:01;;;;;;;13.75;1.75;;;10.60;99.90;;;;;;5049815;28;20045;-46
2022/11/02 02:07:29;;;;;;;16.10;1.60;;;10.50;99.90;;;;;;5049741;28;20052;-50
2022/11/02 02:09:55;;;;;;;15.57;2.05;;;10.30;99.90;;;;;;5049577;28;20044;-45
2022/11/02 02:12:22;;;;;;;17.95;2.00;;;10.50;99.90;;;;;;5049798;28;20048;-46
2022/11/02 02:14:48;;;;;;;12.93;1.90;;;10.50;99.90;;;;;;5050120;28;20041;-46
2022/11/02 02:17:38;;;;;;;10.10;1.90;;;11.00;99.90;;;;;;5047997;28;20563;-46
2022/11/02 02:20:08;;;;;;;14.00;1.75;;;10.10;99.90;;;;;;5049475;28;20040;-47
2022/11/02 02:23:00;;;;;;;15.15;1.67;;;10.10;99.90;;;;;;5049405;28;20036;-45
2022/11/02 02:25:25;;;;;;;15.23;2.28;;;10.10;99.90;;;;;;5049377;28;20072;-47
2022/11/02 02:27:59;;;;;;;11.57;1.65;;;10.20;99.90;;;;;;5049660;28;20486;-47
2022/11/02 02:30:27;;;;;;;12.43;2.13;;;10.50;99.90;;;;;;5049224;28;20128;-49
2022/11/02 02:32:56;;;;;;;12.95;2.40;;;10.70;99.90;;;;;;5049215;28;20604;-46
2022/11/02 02:35:59;;;;;;;14.68;2.08;;;10.60;99.90;;;;;;5049445;28;20049;-48
2022/11/02 02:38:40;;;;;;;11.13;1.73;;;10.30;99.90;;;;;;5026449;28;20037;-46
2022/11/02 02:41:13;;;;;;;15.15;2.10;;;10.60;99.90;;;;;;5047090;28;20061;-46
2022/11/02 02:43:49;;;;;;;12.52;3.00;;;10.80;99.90;;;;;;5047854;28;20045;-46
2022/11/02 02:46:31;;;;;;;11.55;2.08;;;10.40;99.90;;;;;;5049396;28;20049;-46
2022/11/02 02:48:58;;;;;;;10.25;2.13;;;10.40;99.90;;;;;;5049723;28;20044;-47
2022/11/02 02:51:32;;;;;;;9.45;1.88;;;10.80;99.90;;;;;;5049310;28;20048;-46
2022/11/02 02:54:04;;;;;;;14.80;1.73;;;10.50;99.90;;;;;;5049126;28;20059;-46
2022/11/02 02:56:40;;;;;;;10.55;1.13;;;10.40;99.90;;;;;;5048084;28;20379;-48
2022/11/02 02:59:14;;;;;;;6.97;1.05;;;10.60;99.90;;;;;;5048981;28;20101;-46
2022/11/02 03:01:42;;;;;;;7.53;1.58;;;11.30;99.90;;;;;;5049578;28;20064;-46
2022/11/02 03:04:12;;;;;;;8.77;1.13;;;11.00;99.90;;;;;;5049297;28;20049;-47
2022/11/02 03:06:39;;;;;;;7.45;0.63;;;10.90;99.90;;;;;;5049115;28;20060;-46
2022/11/02 03:09:26;;;;;;;6.07;1.10;;;10.80;99.90;;;;;;5048681;28;20068;-46
2022/11/02 03:12:21;;;;;;;6.85;1.17;;;10.40;99.90;;;;;;5048677;28;20538;-47
2022/11/02 03:15:26;;;;;;;8.88;1.27;;;10.30;99.90;;;;;;5048906;28;20053;-46
2022/11/02 03:18:37;;;;;;;12.02;0.90;;;10.40;99.90;;;;;;5048787;28;20531;-46
2022/11/02 03:21:16;;;;;;;6.43;0.80;;;10.40;99.90;;;;;;5043157;28;20495;-46
2022/11/02 03:23:49;;;;;;;5.65;0.90;;;10.30;99.90;;;;;;5048411;28;20045;-46
2022/11/02 03:26:28;;;;;;;7.75;1.55;;;10.30;99.90;;;;;;5048590;28;20044;-46
2022/11/02 03:29:11;;;;;;;8.60;0.85;;;10.20;99.90;;;;;;5048876;28;20036;-46
2022/11/02 03:31:57;;;;;;;7.53;0.60;;;10.80;99.90;;;;;;5048678;28;20052;-47
2022/11/02 03:34:43;;;;;;;8.95;1.05;;;10.10;99.90;;;;;;5048648;28;20509;-45
2022/11/02 03:37:21;;;;;;;4.57;0.68;;;10.40;99.90;;;;;;5048925;28;20041;-45
2022/11/02 03:40:07;;;;;;;8.65;1.33;;;10.20;99.90;;;;;;5048961;28;20692;-46
2022/11/02 03:42:34;;;;;;;9.73;1.65;;;9.90;99.90;;;;;;5048397;28;20044;-47
2022/11/02 03:45:09;;;;;;;6.47;0.90;;;10.60;99.90;;;;;;5047910;28;20111;-46
2022/11/02 03:47:36;;;;;;;10.23;1.27;;;9.70;99.90;;;;;;5048290;28;20127;-47
2022/11/02 03:50:04;;;;;;;6.25;0.60;;;10.30;99.90;;;;;;5048303;28;20044;-46
2022/11/02 03:52:34;;;;;;;8.00;0.70;;;9.60;99.90;;;;;;5047781;28;20513;-46
2022/11/02 03:55:15;;;;;;;12.68;0.95;;;10.30;99.90;;;;;;5046750;28;20521;-47
2022/11/02 03:57:49;;;;;;;5.32;0.68;;;9.50;99.90;;;;;;5048152;28;20045;-46
2022/11/02 04:00:20;;;;;;;5.57;0.63;;;9.80;99.90;;;;;;5048303;28;20040;-46
2022/11/02 04:02:58;;;;;;;6.75;1.05;;;9.70;99.90;;;;;;5047930;28;20489;-47
2022/11/02 04:05:32;;;;;;;6.00;0.47;;;9.50;99.90;;;;;;5047411;28;20066;-46
2022/11/02 04:16:13;;;;;;;5.55;0.40;;;10.00;99.90;;;;;;5047166;28;20055;-46
2022/11/02 04:21:24;;;;;;;7.32;0.82;;;10.00;99.90;;;;;;5046644;28;20633;-46
2022/11/02 04:26:33;;;;;;;8.20;0.60;;;9.80;99.90;;;;;;5047252;28;20136;-46
2022/11/02 04:28:59;;;;;;;9.70;0.57;;;10.10;99.90;;;;;;5047520;28;20135;-46
2022/11/02 04:31:25;;;;;;;6.85;0.50;;;9.80;99.90;;;;;;5046808;28;20461;-46
2022/11/02 04:33:50;;;;;;;7.85;0.32;;;10.10;99.90;;;;;;5047434;28;20040;-46
2022/11/02 04:36:16;;;;;;;5.40;0.47;;;10.20;99.90;;;;;;5047436;28;20036;-46
2022/11/02 04:38:42;;;;;;;6.70;1.05;;;10.00;99.90;;;;;;5047476;28;20196;-46
2022/11/02 04:43:56;;;;;;;5.10;0.57;;;9.70;99.90;;;;;;5047193;28;20128;-46
2022/11/02 04:46:24;;;;;;;8.02;0.40;;;9.50;99.90;;;;;;5046703;28;20124;-46
2022/11/02 04:48:50;;;;;;;6.97;0.45;;;9.50;99.90;;;;;;5046995;28;20080;-48
2022/11/02 04:51:16;;;;;;;6.57;1.38;;;9.80;99.90;;;;;;5046875;28;20128;-45
2022/11/02 04:53:42;;;;;;;5.82;0.80;;;9.90;99.90;;;;;;5045167;28;20064;-46
2022/11/02 04:56:08;;;;;;;7.57;0.98;;;10.30;99.90;;;;;;5047217;28;20044;-46
2022/11/02 04:58:34;;;;;;;6.47;0.65;;;9.90;99.90;;;;;;5049573;28;20044;-47
2022/11/02 05:01:08;;;;;;;3.45;0.43;;;10.00;99.90;;;;;;5051339;28;20053;-48
2022/11/02 05:03:34;;;;;;;14.63;1.10;;;10.30;99.90;;;;;;5049711;28;20041;-47
2022/11/02 05:06:03;;;;;;;7.55;0.90;;;9.70;99.90;;;;;;5051465;28;20045;-46
2022/11/02 05:08:28;;;;;;;6.68;1.27;;;9.70;99.90;;;;;;5051228;28;20119;-47
2022/11/02 05:10:55;;;;;;;6.97;0.90;;;9.70;99.90;;;;;;5051466;28;20721;-46
2022/11/02 05:13:21;;;;;;;8.82;1.20;;;9.70;99.90;;;;;;5051483;28;20051;-46
2022/11/02 05:15:47;;;;;;;9.95;1.52;;;9.70;99.90;;;;;;5051456;28;20036;-46
2022/11/02 05:18:13;;;;;;;8.75;0.85;;;9.90;99.90;;;;;;5051229;28;20090;-46
2022/11/02 05:20:38;;;;;;;12.95;2.83;;;9.70;99.90;;;;;;5050925;28;20786;-46
2022/11/02 05:23:05;;;;;;;9.27;1.40;;;9.60;99.90;;;;;;5050920;28;20045;-48
2022/11/02 05:25:31;;;;;;;6.07;0.80;;;9.70;99.90;;;;;;5050466;28;20499;-48
2022/11/02 05:27:57;;;;;;;8.10;1.45;;;9.70;99.90;;;;;;5050439;28;20041;-47
2022/11/02 05:30:22;;;;;;;10.75;1.35;;;9.70;99.90;;;;;;5050409;28;20513;-46
2022/11/02 05:32:48;;;;;;;17.25;3.25;;;9.50;99.90;;;;;;5035190;28;20085;-45
2022/11/02 05:35:14;;;;;;;9.18;1.15;;;10.80;99.90;;;;;;5048100;28;20564;-45
2022/11/02 05:37:40;;;;;;;23.13;2.38;;;9.90;99.90;;;;;;5050359;28;20127;-46
2022/11/02 05:40:07;;;;;;;9.57;1.63;;;9.80;99.90;;;;;;5050228;28;20120;-46
2022/11/02 05:42:33;;;;;;;7.35;1.25;;;9.80;99.90;;;;;;5050060;28;20049;-46
2022/11/02 05:44:59;;;;;;;11.57;1.25;;;9.80;99.90;;;;;;5048868;28;20033;-47
2022/11/02 05:47:24;;;;;;;11.98;1.20;;;10.30;99.90;;;;;;5050359;28;20450;-48
2022/11/02 05:49:50;;;;;;;13.10;1.83;;;9.70;99.90;;;;;;5049911;28;20182;-47
2022/11/02 05:52:16;;;;;;;8.70;0.95;;;9.60;99.90;;;;;;5050165;28;20056;-46
2022/11/02 05:54:41;;;;;;;9.30;0.95;;;9.70;99.90;;;;;;5048651;28;20056;-46
2022/11/02 05:57:07;;;;;;;8.27;1.35;;;9.70;99.90;;;;;;5049808;28;20041;-46
2022/11/02 05:59:33;;;;;;;11.13;1.17;;;9.70;99.90;;;;;;5049712;28;20048;-47
2022/11/02 06:01:58;;;;;;;10.55;1.92;;;9.60;99.90;;;;;;5050003;28;20041;-45
2022/11/02 06:04:24;;;;;;;9.55;1.00;;;10.20;99.90;;;;;;5050433;28;20111;-46
2022/11/02 06:06:50;;;;;;;15.20;2.15;;;10.40;99.90;;;;;;5049961;28;20044;-46
2022/11/02 06:09:15;;;;;;;11.27;0.82;;;10.00;99.90;;;;;;5049610;28;20087;-45
2022/11/02 06:11:41;;;;;;;7.43;0.90;;;10.00;99.90;;;;;;5049795;28;20055;-45
2022/11/02 06:14:06;;;;;;;13.07;1.98;;;10.00;99.90;;;;;;5048525;28;20048;-45
2022/11/02 06:16:32;;;;;;;11.38;1.35;;;9.40;99.90;;;;;;5049350;28;20041;-46
2022/11/02 06:18:58;;;;;;;9.05;1.27;;;9.20;99.90;;;;;;5049251;28;20043;-46
2022/11/02 06:21:23;;;;;;;9.50;1.20;;;9.40;99.90;;;;;;5049373;28;20128;-45
2022/11/02 06:23:50;;;;;;;11.35;0.85;;;9.40;99.90;;;;;;5048763;28;20059;-46
2022/11/02 06:26:15;;;;;;;10.75;1.90;;;10.10;99.90;;;;;;5049352;28;20041;-46
2022/11/02 06:28:41;;;;;;;13.48;1.70;;;9.40;99.90;;;;;;5049150;28;20470;-45
2022/11/02 06:31:07;;;;;;;7.93;1.15;;;9.40;99.90;;;;;;5049296;28;20474;-45
2022/11/02 06:33:33;;;;;;;10.95;1.77;;;9.70;99.90;;;;;;5049360;28;20041;-46
2022/11/02 06:35:59;;;;;;;13.68;1.95;;;9.40;99.90;;;;;;5049427;28;20186;-45
2022/11/02 06:38:24;;;;;;;12.65;1.63;;;9.30;99.90;;;;;;5049504;28;20331;-45
2022/11/02 06:40:59;;;;;;;10.70;1.10;;;9.30;99.90;;;;;;5049536;28;20626;-46
2022/11/02 06:43:25;;;;;;;18.45;2.55;;;9.30;99.90;;;;;;5049572;28;20131;-46
2022/11/02 06:45:54;;;;;;;11.63;1.65;;;9.50;99.90;;;;;;5049786;28;20041;-45
2022/11/02 06:48:20;;;;;;;13.52;2.03;;;9.50;99.90;;;;;;5049877;28;20621;-45
2022/11/02 06:50:46;;;;;;;14.30;1.85;;;9.60;99.90;;;;;;5049699;28;20053;-44
2022/11/02 06:53:11;;;;;;;15.85;1.95;;;9.60;99.90;;;;;;5049769;28;20494;-44
2022/11/02 06:55:37;;;;;;;13.23;1.58;;;9.60;99.90;;;;;;5049215;28;20781;-45
2022/11/02 06:58:03;;;;;;;13.63;1.25;;;9.60;99.90;;;;;;5049524;28;20132;-46
2022/11/02 07:00:29;;;;;;;13.43;2.38;;;9.60;99.90;;;;;;5049047;28;20048;-45
2022/11/02 07:03:09;;;;;;;16.52;2.05;;;9.70;99.90;;;;;;5048833;28;20127;-46
2022/11/02 07:05:36;;;;;;;13.00;2.40;;;9.80;99.90;;;;;;5049102;28;20037;-45
2022/11/02 07:08:02;;;;;;;13.52;2.08;;;9.80;99.90;;;;;;5048790;28;20047;-45
2022/11/02 07:10:28;;;;;;;15.70;1.95;;;9.90;99.90;;;;;;5048915;28;20051;-45
2022/11/02 07:12:55;;;;;;;11.95;1.42;;;9.90;99.90;;;;;;5048548;28;20486;-45
2022/11/02 07:15:23;;;;;;;13.60;1.95;;;10.10;99.90;;;;;;5048620;28;20037;-46
2022/11/02 07:17:49;;;;;;;16.35;1.73;;;9.90;99.90;;;;;;5048314;28;20037;-48
2022/11/02 07:20:15;;;;;;;15.75;1.67;;;9.90;99.90;;;;;;5047462;28;20033;-44
2022/11/02 07:22:41;;;;;;;13.13;2.72;;;9.90;99.90;;;;;;5048190;28;20151;-44
2022/11/02 07:25:07;;;;;;;10.65;1.65;;;10.10;99.90;;;;;;5048502;28;20048;-46
2022/11/02 07:27:39;;;;;;;10.55;1.38;;;10.20;99.90;;;;;;5048624;28;20151;-45
2022/11/02 07:30:06;;;;;;;10.55;1.40;;;10.30;99.90;;;;;;5048061;28;20032;-45
2022/11/02 07:32:44;;;;;;;9.15;1.20;;;10.30;99.90;;;;;;5048133;28;20106;-45
2022/11/02 07:35:13;;;;;;;10.07;1.08;;;10.40;99.90;;;;;;5048127;28;20102;-49
2022/11/02 07:37:40;;;;;;;10.43;1.20;;;10.40;99.90;;;;;;5048431;28;20043;-45
2022/11/02 07:40:08;;;;;;;14.27;1.33;;;10.40;99.90;;;;;;5048422;28;20037;-45
2022/11/02 07:42:34;;;;;;;9.20;1.45;;;10.40;99.90;;;;;;5048259;28;20526;-45
2022/11/02 07:45:00;;;;;;;13.95;1.95;;;10.40;99.90;;;;;;5048268;28;20048;-46
2022/11/02 07:47:26;;;;;;;11.57;1.13;;;11.00;99.90;;;;;;5048220;28;20040;-48
2022/11/02 07:49:52;;;;;;;10.10;1.58;;;10.30;99.90;;;;;;5048066;28;20389;-47
2022/11/02 07:52:17;;;;;;;13.88;1.50;;;10.20;99.90;;;;;;5048135;28;20041;-45
2022/11/02 07:54:43;;;;;;;12.73;1.55;;;10.00;99.90;;;;;;5047835;28;20110;-47
2022/11/02 07:57:09;;;;;;;14.95;1.10;;;10.20;99.90;;;;;;5048192;28;20036;-45
2022/11/02 07:59:35;;;;;;;6.55;1.20;;;10.50;99.90;;;;;;5048151;28;20544;-46
2022/11/02 08:02:01;;;;;;;14.07;1.73;;;10.20;99.90;;;;;;5046683;28;20060;-47
2022/11/02 08:04:27;;;;;;;11.27;0.90;;;10.10;99.90;;;;;;5048229;28;20056;-47
2022/11/02 08:06:53;;;;;;;10.27;1.48;;;10.30;99.90;;;;;;5048026;28;20047;-45
2022/11/02 08:09:19;;;;;;;7.18;1.13;;;10.00;99.90;;;;;;5047978;28;20042;-45
2022/11/02 08:11:44;;;;;;;6.38;0.55;;;10.50;99.90;;;;;;5047946;28;20504;-46
2022/11/02 08:14:10;;;;;;;9.00;0.90;;;10.40;99.90;;;;;;5047686;28;20092;-45
2022/11/02 08:16:36;;;;;;;10.32;0.80;;;10.40;99.90;;;;;;5047885;28;20045;-45
2022/11/02 08:19:01;;;;;;;6.60;0.70;;;10.40;99.90;;;;;;5045897;28;20091;-46
2022/11/02 08:21:27;;;;;;;12.07;0.70;;;10.10;99.90;;;;;;5047406;28;20148;-45
2022/11/02 08:23:54;;;;;;;7.45;0.77;;;10.40;99.90;;;;;;5047209;28;20052;-45
2022/11/02 08:26:20;;;;;;;5.78;0.73;;;10.50;99.90;;;;;;5047612;28;20103;-45
2022/11/02 08:28:46;;;;;;;9.48;0.55;;;10.60;99.90;;;;;;5047637;28;20055;-45
2022/11/02 08:31:15;;;;;;;12.30;1.33;;;10.70;99.90;;;;;;5046775;28;20394;-45
2022/11/02 08:33:44;;;;;;;12.55;1.88;;;10.80;99.90;;;;;;5047375;28;20036;-45
2022/11/02 08:36:10;;;;;;;12.95;1.45;;;11.90;99.90;;;;;;5046865;28;20688;-46
2022/11/02 08:38:36;;;;;;;7.63;0.80;;;11.50;99.90;;;;;;5046980;28;20124;-45
2022/11/02 08:41:02;;;;;;;10.63;0.90;;;11.60;99.90;;;;;;5046828;28;20044;-46
2022/11/02 08:43:27;;;;;;;8.15;0.70;;;11.60;99.90;;;;;;5047194;28;20087;-46
2022/11/02 08:45:59;;;;;;;10.85;1.05;;;11.70;99.90;;;;;;5046440;28;20118;-45
2022/11/02 08:48:25;;;;;;;11.38;2.03;;;11.80;99.90;;;;;;5046748;28;20049;-45
2022/11/02 08:50:52;;;;;;;9.88;0.82;;;11.90;99.90;;;;;;5046317;28;20052;-46
2022/11/02 08:53:17;;;;;;;6.97;0.77;;;11.70;99.90;;;;;;5046801;28;20375;-45
2022/11/02 08:55:43;;;;;;;5.63;0.75;;;11.90;99.90;;;;;;5046547;28;20045;-46
2022/11/02 08:58:09;;;;;;;7.38;0.50;;;11.60;99.90;;;;;;5046285;28;20037;-48
2022/11/02 09:00:35;;;;;;;8.43;1.42;;;11.60;99.90;;;;;;5046435;28;20049;-49
2022/11/02 09:03:12;;;;;;;8.77;0.68;;;11.70;99.90;;;;;;5046688;28;20999;-45
2022/11/02 09:05:41;;;;;;;5.47;0.65;;;11.60;99.90;;;;;;5045563;28;20482;-46
2022/11/02 09:08:12;;;;;;;8.15;0.75;;;11.60;99.90;;;;;;5043261;28;20051;-47
2022/11/02 09:10:38;;;;;;;6.97;0.53;;;11.60;99.90;;;;;;5045176;28;20077;-45
2022/11/02 09:13:06;;;;;;;7.65;0.90;;;11.70;99.90;;;;;;5046482;28;20145;-45
2022/11/02 09:15:34;;;;;;;8.73;1.48;;;11.70;99.90;;;;;;5046737;28;20092;-46
2022/11/02 09:17:59;;;;;;;4.00;0.95;;;13.80;99.90;;;;;;5046593;28;20032;-46
2022/11/02 09:20:25;;;;;;;6.32;0.50;;;12.00;99.90;;;;;;5046144;28;20481;-46
2022/11/02 09:22:51;;;;;;;4.57;0.60;;;12.00;99.90;;;;;;5046518;28;20045;-48
2022/11/02 09:25:17;;;;;;;12.05;0.85;;;12.00;99.90;;;;;;5046248;28;20685;-47
2022/11/02 09:27:43;;;;;;;9.10;0.55;;;12.10;99.90;;;;;;5044410;28;20573;-48
2022/11/02 09:30:10;;;;;;;5.45;0.80;;;12.20;99.90;;;;;;5046111;28;20091;-46
2022/11/02 09:32:36;;;;;;;3.80;0.30;;;12.20;99.90;;;;;;5045605;28;20041;-46
2022/11/02 09:35:05;;;;;;;10.25;0.82;;;12.30;99.90;;;;;;5044988;28;20118;-49
2022/11/02 09:37:30;;;;;;;4.15;0.45;;;12.30;99.90;;;;;;5034839;28;20124;-47
2022/11/02 09:39:56;;;;;;;9.18;0.60;;;12.30;99.90;;;;;;5038497;28;20037;-48
2022/11/02 09:42:31;;;;;;;8.05;0.95;;;12.40;99.90;;;;;;5038275;28;20040;-48
2022/11/02 09:45:04;;;;;;;8.63;1.15;;;12.40;99.90;;;;;;5039277;28;20080;-51
2022/11/02 09:47:33;;;;;;;7.30;1.10;;;12.40;99.90;;;;;;5041720;28;20048;-46
2022/11/02 09:50:02;;;;;;;4.03;0.32;;;12.50;99.90;;;;;;5042966;28;20125;-46
2022/11/02 09:52:35;;;;;;;5.75;0.40;;;12.50;99.90;;;;;;5042562;28;20041;-46
2022/11/02 09:55:09;;;;;;;8.13;0.70;;;12.90;99.90;;;;;;5042798;28;20048;-45
2022/11/02 09:57:37;;;;;;;7.07;0.70;;;12.90;99.90;;;;;;5041806;28;20033;-50
2022/11/02 10:00:04;;;;;;;8.18;1.00;;;12.90;99.90;;;;;;5042495;28;20405;-49
2022/11/02 10:02:51;;;;;;;6.20;0.73;;;13.00;99.90;;;;;;5042223;28;20111;-61
2022/11/02 10:05:29;;;;;;;7.95;1.20;;;13.20;99.90;;;;;;5041710;28;20037;-48
2022/11/02 10:08:12;;;;;;;3.38;0.32;;;13.20;99.90;;;;;;5042458;28;20045;-49
2022/11/02 10:10:49;;;;;;;4.05;0.60;;;13.40;99.90;;;;;;5041837;28;20049;-50
2022/11/02 10:13:39;;;;;;;4.72;1.05;;;13.50;99.90;;;;;;5041008;28;20037;-48
2022/11/02 10:16:19;;;;;;;4.45;0.45;;;13.60;99.90;;;;;;5040449;28;20497;-50
2022/11/02 10:18:49;;;;;;;4.75;0.95;;;13.70;99.90;;;;;;5037820;28;20548;-52
2022/11/02 10:21:31;;;;;;;7.75;1.23;;;13.90;99.90;;;;;;5017315;28;20050;-59
2022/11/02 10:23:58;;;;;;;3.63;0.70;;;14.00;99.90;;;;;;5026689;28;20052;-49
2022/11/02 10:26:32;;;;;;;9.48;1.20;;;14.20;99.90;;;;;;5030242;28;20053;-51
2022/11/02 10:29:05;;;;;;;8.57;1.13;;;14.30;99.90;;;;;;5031449;28;20783;-48
2022/11/02 10:31:34;;;;;;;12.40;0.80;;;14.30;99.90;;;;;;5029214;28;20620;-49
2022/11/02 10:34:14;;;;;;;8.82;1.10;;;14.30;99.90;;;;;;5030841;28;20047;-51
2022/11/02 10:36:58;;;;;;;8.38;1.30;;;14.40;99.90;;;;;;5032136;28;20064;-57
2022/11/02 10:39:53;;;;;;;8.60;0.82;;;14.30;99.90;;;;;;5029847;28;20045;-46
2022/11/02 10:42:38;;;;;;;12.05;0.57;;;14.20;99.90;;;;;;5021851;28;20140;-49
2022/11/02 10:45:19;;;;;;;9.98;1.23;;;14.00;99.90;;;;;;5033285;28;20075;-53
2022/11/02 10:48:03;;;;;;;9.75;1.38;;;14.00;99.90;;;;;;5033018;28;20037;-50
2022/11/02 10:50:45;;;;;;;12.63;1.05;;;13.80;99.90;;;;;;5030997;28;20029;-53
2022/11/02 10:53:18;;;;;;;12.98;1.42;;;13.80;99.90;;;;;;5032500;28;20088;-53
2022/11/02 10:56:00;;;;;;;7.55;0.73;;;13.70;99.90;;;;;;5032786;28;20049;-55
2022/11/02 10:58:29;;;;;;;9.55;2.85;;;13.60;99.90;;;;;;5031564;28;20807;-46
2022/11/02 11:01:09;;;;;;;6.78;0.40;;;13.60;99.90;;;;;;5030761;28;20048;-48
2022/11/02 11:03:52;;;;;;;8.23;0.98;;;13.60;99.90;;;;;;5031987;28;20603;-49
2022/11/02 11:06:19;;;;;;;7.45;1.33;;;13.50;99.90;;;;;;5028699;28;20045;-52
2022/11/02 11:08:48;;;;;;;10.10;1.30;;;13.40;99.90;;;;;;5031400;28;20779;-51
2022/11/02 11:11:18;;;;;;;9.15;1.25;;;13.20;99.90;;;;;;5029533;28;20040;-46
2022/11/02 11:13:55;;;;;;;7.30;0.77;;;13.00;99.90;;;;;;5029822;28;20108;-48
2022/11/02 11:16:51;;;;;;;5.95;0.60;;;12.90;99.90;;;;;;5026535;28;21281;-49
2022/11/02 11:19:33;;;;;;;7.50;0.65;;;12.80;99.90;;;;;;5025256;28;20094;-49
2022/11/02 11:21:59;;;;;;;;;;;12.70;99.90;;;;;;5031958;28;20041;-52
2022/11/02 11:24:29;;;;;;;9.32;1.15;;;12.90;99.90;;;;;;5029995;28;20640;-52
2022/11/02 11:27:11;;;;;;;10.07;0.85;;;12.80;99.90;;;;;;5030510;28;20480;-49
2022/11/02 11:29:40;;;;;;;10.18;1.10;;;13.10;99.90;;;;;;5031462;28;20043;-47
2022/11/02 11:32:23;;;;;;;7.35;1.35;;;13.30;99.90;;;;;;5028463;28;23184;-43
2022/11/02 11:35:04;;;;;;;9.07;0.80;;;13.50;99.90;;;;;;5035642;28;20078;-40
2022/11/02 11:37:30;;;;;;;10.43;2.15;;;13.60;99.90;;;;;;5039713;28;20436;-40
2022/11/02 11:40:02;;;;;;;11.40;1.23;;;13.60;99.90;;;;;;5038817;28;20057;-40
2022/11/02 11:42:35;;;;;;;6.47;0.57;;;13.60;99.90;;;;;;5039936;28;20075;-40
2022/11/02 11:45:21;;;;;;;6.60;0.40;;;13.50;99.90;;;;;;5040037;28;20040;-39
2022/11/02 11:47:52;;;;;;;4.57;0.68;;;13.70;99.90;;;;;;5039423;28;20037;-39
2022/11/02 11:50:18;;;;;;;8.90;0.50;;;13.80;99.90;;;;;;5039231;28;20033;-40
2022/11/02 11:52:45;;;;;;;7.60;0.80;;;13.90;99.90;;;;;;5040513;28;20059;-39
2022/11/02 11:55:26;;;;;;;6.18;0.43;;;13.90;99.90;;;;;;5040506;28;20593;-39
2022/11/02 11:58:33;;;;;;;7.25;0.75;;;14.00;99.90;;;;;;5040293;28;20033;-39
2022/11/02 12:01:04;;;;;;;6.63;0.50;;;14.00;99.90;;;;;;5020841;28;20056;-39
2022/11/02 12:03:30;;;;;;;7.73;0.70;;;13.90;99.90;;;;;;5040036;28;20036;-40
2022/11/02 12:06:02;;;;;;;7.47;0.40;;;13.90;99.90;;;;;;5040136;28;20079;-39
2022/11/02 12:08:41;;;;;;;4.47;0.65;;;13.80;99.90;;;;;;5039721;28;20037;-39
2022/11/02 12:11:40;;;;;;;3.67;0.40;;;13.90;99.90;;;;;;5039521;28;20515;-39
2022/11/02 12:14:15;;;;;;;5.80;1.13;;;14.00;99.90;;;;;;5038540;28;20044;-40
2022/11/02 12:17:29;;;;;;;7.03;1.00;;;14.10;99.90;;;;;;5038497;28;20041;-39
2022/11/02 12:20:27;;;;;;;6.35;0.50;;;14.20;99.90;;;;;;5035065;28;20051;-40
2022/11/02 12:23:30;;;;;;;5.63;0.75;;;14.40;99.90;;;;;;5023798;28;20037;-40
2022/11/02 12:26:20;;;;;;;5.60;0.50;;;14.50;99.90;;;;;;5039166;28;20072;-39
2022/11/02 12:29:11;;;;;;;5.78;0.50;;;14.70;99.90;;;;;;5039284;28;20858;-40
2022/11/02 12:31:40;;;;;;;4.93;0.80;;;14.70;99.90;;;;;;5037592;28;20124;-41
2022/11/02 12:34:09;;;;;;;7.07;0.60;;;14.70;99.90;;;;;;5038080;28;20104;-42
2022/11/02 12:36:52;;;;;;;4.50;0.30;;;14.60;99.90;;;;;;5037021;28;20653;-39
2022/11/02 12:39:44;;;;;;;7.85;0.40;;;14.50;99.90;;;;;;5038356;28;20037;-39
2022/11/02 12:42:39;;;;;;;3.72;0.65;;;14.40;99.90;;;;;;5024232;28;20045;-39
2022/11/02 12:45:16;;;;;;;6.15;0.90;;;14.20;99.90;;;;;;5037245;28;20474;-40
2022/11/02 12:47:56;;;;;;;7.78;0.38;;;14.00;99.90;;;;;;5039294;28;20036;-40
2022/11/02 12:51:05;;;;;;;10.02;1.13;;;13.90;99.90;;;;;;5037917;28;20025;-39
2022/11/02 12:53:37;;;;;;;6.05;0.43;;;13.80;99.90;;;;;;5027716;28;20467;-44
2022/11/02 12:56:06;;;;;;;7.85;0.50;;;13.70;99.90;;;;;;5039225;28;20450;-39
2022/11/02 12:58:35;;;;;;;7.53;0.68;;;13.60;99.90;;;;;;5038268;28;20045;-40
2022/11/02 13:01:29;;;;;;;5.53;0.32;;;13.50;99.90;;;;;;5038228;28;20892;-42
2022/11/02 13:04:25;;;;;;;7.47;0.60;;;13.50;99.90;;;;;;5039627;28;20075;-40
2022/11/02 13:07:04;;;;;;;7.57;0.60;;;13.40;99.90;;;;;;5038138;28;20049;-41
2022/11/02 13:09:43;;;;;;;5.55;0.55;;;13.40;99.90;;;;;;5038856;28;20044;-40
2022/11/02 13:12:14;;;;;;;5.90;0.40;;;13.30;99.90;;;;;;5037408;28;20045;-41
2022/11/02 13:14:42;;;;;;;15.57;1.20;;;13.30;99.90;;;;;;5038890;28;20116;-40
2022/11/02 13:17:23;;;;;;;6.32;1.05;;;13.20;99.90;;;;;;5038998;28;20044;-41
2022/11/02 13:20:17;;;;;;;7.57;0.50;;;13.10;99.90;;;;;;5038909;28;20048;-39
2022/11/02 13:22:48;;;;;;;6.97;0.63;;;13.00;99.90;;;;;;5031000;28;20594;-40
2022/11/02 13:25:32;;;;;;;5.95;0.70;;;13.30;99.90;;;;;;5031033;28;20049;-41